LFLS/GNB METAR and TAF weather

Enter ICAO airport designator
Station Type Date Time Source
LFLS METAR 2019/05/20 11:00 UTC NOAA

LFLS 201100Z AUTO 31008KT 270V330 9999 SCT017/// BKN026/// OVC033/// ///TCU 14/10 Q1010 TEMPO SHRA


Station Type Date Time Source
LFLS Decoded METAR 2019/05/20 11:00 UTC NOAA

Grenoble / St. Geoirs, France (LFLS) 45-22N 005-20E 386M
May 20, 2019 - 07:00 AM EDT / 2019.05.20 1100 UTC
Wind: from the NW (310 degrees) at 9 MPH (8 KT) (direction variable):0
Visibility: greater than 7 mile(s):0
Sky conditions: overcast
Weather: Towering cumulus clouds observed
Temperature: 57 F (14 C)
Dew Point: 50 F (10 C)
Relative Humidity: 76%
Pressure (altimeter): 29.83 in. Hg (1010 hPa)
ob: LFLS 201100Z AUTO 31008KT 270V330 9999 SCT017/// BKN026/// OVC033/// ///TCU 14/10 Q1010 TEMPO SHRA
cycle: 11

Station Type Date Time Source
LFLS TAF 2019/05/20 09:42 UTC NOAA

TAF TAF LFLS 200800Z 2009/2109 32007KT 9999 SCT020 SCT030 PROB40
TEMPO 2009/2021 6000 SHRA SCT015 BKN025TCU PROB30
TEMPO 2021/2103 7000 -RA SCT015 BKN020
BECMG 2101/2103 5000 BR OVC008
BECMG 2107/2109 SCT030

Example: see airport list